Heloise — 3FLA7 — position and weather

sailwx.info

Track history (hours):
 
Tides and Currents Weather Stations Pressure Air Temp Water Temp Dewpoint Dewpoint Depression Visibility Wind Speed Wind Dir Waves Ship Positions

Heloise

Last reported at 2014-Nov-09 15:32 UTC. Time now 2014-Nov-23 02:17 UTC.
Position N 36°35' E 014°00'.
Warning: this ship's position is 13 days out of date.

Length 186 m; draft 9.8 m.

Type: Cargo ship. MMSI: 352302000.

Date/timePositionNaut miles runAvg speedWind from/ knotsBaromVisibWave heightAir tempDewpointWater temp
2014-Nov-09 15:32N 36°35' E 014°00'11113.1
2014-Nov-09 07:04N 37°07' E 011°47'713.5
2014-Nov-09 06:31N 37°10' E 011°39'5813.4
2014-Nov-09 02:10N 37°33' E 010°32'1014.8
2014-Nov-09 01:29N 37°35' E 010°19'1515.5
2014-Nov-09 00:32N 37°35' E 010°00'1514.9
2014-Nov-08 23:33N 37°34' E 009°42'1514.5
2014-Nov-08 22:32N 37°30' E 009°24'1414.2
2014-Nov-08 21:33N 37°25' E 009°08'1714.4
2014-Nov-08 20:23N 37°18' E 008°49'67813.9
2014-Nov-06 19:29N 36°00' W 005°11'1011.3
2014-Nov-06 18:33N 36°05' W 005°22'2 2.3
2014-Nov-06 17:32N 36°08' W 005°22'0 0.0
2014-Nov-06 15:32N 36°08' W 005°22'0 0.0
2014-Nov-06 12:29N 36°08' W 005°22'3 3.0
2014-Nov-06 11:29N 36°05' W 005°21'4 4.2
2014-Nov-06 10:31N 36°05' W 005°16'0 0.1
2014-Nov-06 09:33N 36°05' W 005°16'2 1.0
2014-Nov-06 07:31N 36°05' W 005°14'0 0.4
2014-Nov-06 06:33N 36°05' W 005°14'3 2.4
2014-Nov-06 05:28N 36°06' W 005°17'2 2.6
2014-Nov-06 04:31N 36°06' W 005°14'1 0.6
2014-Nov-06 03:31N 36°07' W 005°14'0 0.5
2014-Nov-06 02:33N 36°07' W 005°14'1 0.9
2014-Nov-06 01:29N 36°06' W 005°13'1 1.0
2014-Nov-06 00:29N 36°07' W 005°14'0 0.2
2014-Nov-05 23:17N 36°06' W 005°14'3 4.1
2014-Nov-05 22:33N 36°04' W 005°13'5 4.8
2014-Nov-05 21:33N 35°59' W 005°16'6 5.7
2014-Nov-05 20:33N 35°59' W 005°23'  
2014-Nov-03 00:33N 36°28' W 023°53'1413.8
2014-Nov-02 23:30N 36°28' W 024°11'1313.6
2014-Nov-02 22:33N 36°29' W 024°27'1413.6
2014-Nov-02 21:33N 36°30' W 024°44'1413.6
2014-Nov-02 20:34N 36°30' W 025°01'1413.9
2014-Nov-02 19:33N 36°35' W 025°17'1413.9
2014-Nov-02 18:34N 36°40' W 025°34'1413.9
2014-Nov-02 17:33N 36°44' W 025°50'1414.0
2014-Nov-02 16:33N 36°49' W 026°06'1414.1
2014-Nov-02 15:33N 36°54' W 026°23'1414.0
2014-Nov-02 14:33N 36°59' W 026°39'1414.2
2014-Nov-02 13:33N 37°04' W 026°56'5614.0
2014-Nov-02 09:33N 37°23' W 028°02'1414.0
2014-Nov-02 08:33N 37°28' W 028°19'1414.0
2014-Nov-02 07:33N 37°33' W 028°35'1413.8
2014-Nov-02 06:33N 37°37' W 028°52'1414.0
2014-Nov-02 05:33N 37°42' W 029°08'1413.9
2014-Nov-02 04:33N 37°47' W 029°25'1413.6
2014-Nov-02 03:34N 37°52' W 029°41'1414.0
2014-Nov-02 02:33N 37°56' W 029°58'1414.2
2014-Nov-02 01:33N 38°01' W 030°15'1514.1
2014-Nov-02 00:28N 38°06' W 030°33'1313.8
2014-Nov-01 23:33N 38°11' W 030°48'3413.7
2014-Nov-01 21:06N 38°22' W 031°28'  
Track history (hours):
 
Tides and Currents Weather Stations Pressure Air Temp Water Temp Dewpoint Dewpoint Depression Visibility Wind Speed Wind Dir Waves Ship Positions

Heloise

Last reported at 2014-Nov-09 15:32 UTC. Time now 2014-Nov-23 02:17 UTC.
Position N 36°35' E 014°00'.
Warning: this ship's position is 13 days out of date.

Length 186 m; draft 9.8 m.

Type: Cargo ship. MMSI: 352302000.

Date/timePositionNaut miles runAvg speedWind from/ knotsBaromVisibWave heightAir tempDewpointWater temp
2014-Nov-09 15:32N 36°35' E 014°00'11113.1
2014-Nov-09 07:04N 37°07' E 011°47'713.5
2014-Nov-09 06:31N 37°10' E 011°39'5813.4
2014-Nov-09 02:10N 37°33' E 010°32'1014.8
2014-Nov-09 01:29N 37°35' E 010°19'1515.5
2014-Nov-09 00:32N 37°35' E 010°00'1514.9
2014-Nov-08 23:33N 37°34' E 009°42'1514.5
2014-Nov-08 22:32N 37°30' E 009°24'1414.2
2014-Nov-08 21:33N 37°25' E 009°08'1714.4
2014-Nov-08 20:23N 37°18' E 008°49'67813.9
2014-Nov-06 19:29N 36°00' W 005°11'1011.3
2014-Nov-06 18:33N 36°05' W 005°22'2 2.3
2014-Nov-06 17:32N 36°08' W 005°22'0 0.0
2014-Nov-06 15:32N 36°08' W 005°22'0 0.0
2014-Nov-06 12:29N 36°08' W 005°22'3 3.0
2014-Nov-06 11:29N 36°05' W 005°21'4 4.2
2014-Nov-06 10:31N 36°05' W 005°16'0 0.1
2014-Nov-06 09:33N 36°05' W 005°16'2 1.0
2014-Nov-06 07:31N 36°05' W 005°14'0 0.4
2014-Nov-06 06:33N 36°05' W 005°14'3 2.4
2014-Nov-06 05:28N 36°06' W 005°17'2 2.6
2014-Nov-06 04:31N 36°06' W 005°14'1 0.6
2014-Nov-06 03:31N 36°07' W 005°14'0 0.5
2014-Nov-06 02:33N 36°07' W 005°14'1 0.9
2014-Nov-06 01:29N 36°06' W 005°13'1 1.0
2014-Nov-06 00:29N 36°07' W 005°14'0 0.2
2014-Nov-05 23:17N 36°06' W 005°14'3 4.1
2014-Nov-05 22:33N 36°04' W 005°13'5 4.8
2014-Nov-05 21:33N 35°59' W 005°16'6 5.7
2014-Nov-05 20:33N 35°59' W 005°23'  
2014-Nov-03 00:33N 36°28' W 023°53'1413.8
2014-Nov-02 23:30N 36°28' W 024°11'1313.6
2014-Nov-02 22:33N 36°29' W 024°27'1413.6
2014-Nov-02 21:33N 36°30' W 024°44'1413.6
2014-Nov-02 20:34N 36°30' W 025°01'1413.9
2014-Nov-02 19:33N 36°35' W 025°17'1413.9
2014-Nov-02 18:34N 36°40' W 025°34'1413.9
2014-Nov-02 17:33N 36°44' W 025°50'1414.0
2014-Nov-02 16:33N 36°49' W 026°06'1414.1
2014-Nov-02 15:33N 36°54' W 026°23'1414.0
2014-Nov-02 14:33N 36°59' W 026°39'1414.2
2014-Nov-02 13:33N 37°04' W 026°56'5614.0
2014-Nov-02 09:33N 37°23' W 028°02'1414.0
2014-Nov-02 08:33N 37°28' W 028°19'1414.0
2014-Nov-02 07:33N 37°33' W 028°35'1413.8
2014-Nov-02 06:33N 37°37' W 028°52'1414.0
2014-Nov-02 05:33N 37°42' W 029°08'1413.9
2014-Nov-02 04:33N 37°47' W 029°25'1413.6
2014-Nov-02 03:34N 37°52' W 029°41'1414.0
2014-Nov-02 02:33N 37°56' W 029°58'1414.2
2014-Nov-02 01:33N 38°01' W 030°15'1514.1
2014-Nov-02 00:28N 38°06' W 030°33'1313.8
2014-Nov-01 23:33N 38°11' W 030°48'3413.7
2014-Nov-01 21:06N 38°22' W 031°28'  

Dump ship's entire track history